sensor_id;sensor_type;location;lat;lon;timestamp;pressure;altitude;pressure_sealevel;temperature;humidity
11936;BME280;6027;48.576;9.180;2022-07-30T00:00:57;96917.38;;;18.41;100.00
11936;BME280;6027;48.576;9.180;2022-07-30T00:03:22;96923.22;;;18.38;100.00
11936;BME280;6027;48.576;9.180;2022-07-30T00:05:48;96926.69;;;18.27;100.00
11936;BME280;6027;48.576;9.180;2022-07-30T00:08:14;96919.34;;;18.22;100.00
11936;BME280;6027;48.576;9.180;2022-07-30T00:10:40;96928.97;;;18.12;100.00
11936;BME280;6027;48.576;9.180;2022-07-30T00:13:06;96934.69;;;18.15;100.00
11936;BME280;6027;48.576;9.180;2022-07-30T00:15:31;96923.50;;;18.07;100.00
11936;BME280;6027;48.576;9.180;2022-07-30T00:17:57;96929.66;;;18.07;100.00
11936;BME280;6027;48.576;9.180;2022-07-30T00:20:22;96929.06;;;18.05;100.00
11936;BME280;6027;48.576;9.180;2022-07-30T00:22:48;96928.41;;;17.91;100.00
11936;BME280;6027;48.576;9.180;2022-07-30T00:25:13;96922.50;;;17.71;100.00
11936;BME280;6027;48.576;9.180;2022-07-30T00:27:39;96923.09;;;17.55;100.00
11936;BME280;6027;48.576;9.180;2022-07-30T00:30:05;96932.31;;;17.77;100.00
11936;BME280;6027;48.576;9.180;2022-07-30T00:32:31;96932.41;;;17.71;100.00
11936;BME280;6027;48.576;9.180;2022-07-30T00:34:56;96931.13;;;17.73;100.00
11936;BME280;6027;48.576;9.180;2022-07-30T00:37:22;96922.56;;;17.83;100.00
11936;BME280;6027;48.576;9.180;2022-07-30T00:39:47;96934.69;;;17.85;100.00
11936;BME280;6027;48.576;9.180;2022-07-30T00:42:13;96931.91;;;17.92;100.00
11936;BME280;6027;48.576;9.180;2022-07-30T00:44:38;96928.00;;;17.76;100.00
11936;BME280;6027;48.576;9.180;2022-07-30T00:47:05;96925.09;;;17.78;100.00
11936;BME280;6027;48.576;9.180;2022-07-30T00:49:30;96932.25;;;17.84;100.00
11936;BME280;6027;48.576;9.180;2022-07-30T00:51:56;96936.50;;;17.73;100.00
11936;BME280;6027;48.576;9.180;2022-07-30T00:54:21;96939.38;;;17.72;100.00
11936;BME280;6027;48.576;9.180;2022-07-30T00:56:47;96944.66;;;17.60;100.00
11936;BME280;6027;48.576;9.180;2022-07-30T00:59:13;96947.34;;;17.60;100.00
11936;BME280;6027;48.576;9.180;2022-07-30T01:01:39;96952.88;;;17.65;100.00
11936;BME280;6027;48.576;9.180;2022-07-30T01:04:05;96950.69;;;17.74;100.00
11936;BME280;6027;48.576;9.180;2022-07-30T01:06:39;96949.44;;;17.76;100.00
11936;BME280;6027;48.576;9.180;2022-07-30T01:09:05;96954.28;;;17.68;100.00
11936;BME280;6027;48.576;9.180;2022-07-30T01:11:35;96958.66;;;17.62;100.00
11936;BME280;6027;48.576;9.180;2022-07-30T01:14:03;96955.72;;;17.70;100.00
11936;BME280;6027;48.576;9.180;2022-07-30T01:16:28;96954.56;;;17.59;100.00
11936;BME280;6027;48.576;9.180;2022-07-30T01:18:56;96946.91;;;17.45;100.00
11936;BME280;6027;48.576;9.180;2022-07-30T01:21:45;96953.25;;;17.50;100.00
11936;BME280;6027;48.576;9.180;2022-07-30T01:24:26;96960.72;;;17.60;100.00
11936;BME280;6027;48.576;9.180;2022-07-30T01:26:53;96957.78;;;17.50;100.00
11936;BME280;6027;48.576;9.180;2022-07-30T01:29:21;96950.78;;;17.49;100.00
11936;BME280;6027;48.576;9.180;2022-07-30T01:31:48;96962.22;;;17.38;100.00
11936;BME280;6027;48.576;9.180;2022-07-30T01:34:15;96957.25;;;17.41;100.00
11936;BME280;6027;48.576;9.180;2022-07-30T01:36:43;96963.13;;;17.32;100.00
11936;BME280;6027;48.576;9.180;2022-07-30T01:39:10;96963.25;;;17.37;100.00
11936;BME280;6027;48.576;9.180;2022-07-30T01:41:36;96962.09;;;17.51;100.00
11936;BME280;6027;48.576;9.180;2022-07-30T01:44:03;96960.91;;;17.47;100.00
11936;BME280;6027;48.576;9.180;2022-07-30T01:46:30;96965.56;;;17.51;100.00
11936;BME280;6027;48.576;9.180;2022-07-30T01:48:56;96969.06;;;17.52;100.00
11936;BME280;6027;48.576;9.180;2022-07-30T01:51:23;96969.44;;;17.55;100.00
11936;BME280;6027;48.576;9.180;2022-07-30T01:53:49;96966.16;;;17.53;100.00
11936;BME280;6027;48.576;9.180;2022-07-30T01:56:18;96975.38;;;17.57;100.00
11936;BME280;6027;48.576;9.180;2022-07-30T01:58:45;96977.41;;;17.62;100.00
11936;BME280;6027;48.576;9.180;2022-07-30T02:01:12;96977.63;;;17.42;100.00
11936;BME280;6027;48.576;9.180;2022-07-30T02:03:38;96983.34;;;17.46;100.00
11936;BME280;6027;48.576;9.180;2022-07-30T02:06:07;96981.28;;;17.48;100.00
11936;BME280;6027;48.576;9.180;2022-07-30T02:08:38;96981.50;;;17.46;100.00
11936;BME280;6027;48.576;9.180;2022-07-30T02:11:14;96974.19;;;17.53;100.00
11936;BME280;6027;48.576;9.180;2022-07-30T02:14:01;96973.38;;;17.53;100.00
11936;BME280;6027;48.576;9.180;2022-07-30T02:16:35;96972.19;;;17.49;100.00
11936;BME280;6027;48.576;9.180;2022-07-30T02:19:07;96977.69;;;17.54;100.00
11936;BME280;6027;48.576;9.180;2022-07-30T02:21:40;96982.75;;;17.44;100.00
11936;BME280;6027;48.576;9.180;2022-07-30T02:24:11;96973.75;;;17.56;100.00
11936;BME280;6027;48.576;9.180;2022-07-30T02:26:40;96969.75;;;17.47;100.00
11936;BME280;6027;48.576;9.180;2022-07-30T02:29:08;96975.91;;;17.48;100.00
11936;BME280;6027;48.576;9.180;2022-07-30T02:31:35;96971.28;;;17.55;100.00
11936;BME280;6027;48.576;9.180;2022-07-30T02:34:03;96976.94;;;17.47;100.00
11936;BME280;6027;48.576;9.180;2022-07-30T02:36:31;96974.78;;;17.37;100.00
11936;BME280;6027;48.576;9.180;2022-07-30T02:38:57;96974.63;;;17.32;100.00
11936;BME280;6027;48.576;9.180;2022-07-30T02:41:26;96978.94;;;17.33;100.00
11936;BME280;6027;48.576;9.180;2022-07-30T02:43:53;96977.06;;;17.34;100.00
11936;BME280;6027;48.576;9.180;2022-07-30T02:46:21;96982.22;;;17.35;100.00
11936;BME280;6027;48.576;9.180;2022-07-30T02:48:48;96982.81;;;17.37;100.00
11936;BME280;6027;48.576;9.180;2022-07-30T02:51:15;96983.94;;;17.30;100.00
11936;BME280;6027;48.576;9.180;2022-07-30T02:53:46;96983.56;;;17.26;100.00
11936;BME280;6027;48.576;9.180;2022-07-30T02:56:13;96982.34;;;17.22;100.00
11936;BME280;6027;48.576;9.180;2022-07-30T02:58:41;96979.75;;;17.15;100.00
11936;BME280;6027;48.576;9.180;2022-07-30T03:01:10;96989.09;;;17.06;100.00
11936;BME280;6027;48.576;9.180;2022-07-30T03:03:39;96987.13;;;16.95;100.00
11936;BME280;6027;48.576;9.180;2022-07-30T03:06:08;96990.84;;;16.94;100.00
11936;BME280;6027;48.576;9.180;2022-07-30T03:08:34;96987.63;;;16.85;100.00
11936;BME280;6027;48.576;9.180;2022-07-30T03:11:01;96979.44;;;16.80;100.00
11936;BME280;6027;48.576;9.180;2022-07-30T03:13:27;96985.00;;;16.79;100.00
11936;BME280;6027;48.576;9.180;2022-07-30T03:15:55;96987.69;;;16.79;100.00
11936;BME280;6027;48.576;9.180;2022-07-30T03:18:22;96983.66;;;16.70;100.00
11936;BME280;6027;48.576;9.180;2022-07-30T03:20:52;96993.53;;;16.69;100.00
11936;BME280;6027;48.576;9.180;2022-07-30T03:23:19;96990.47;;;16.66;100.00
11936;BME280;6027;48.576;9.180;2022-07-30T03:25:58;96986.38;;;16.63;100.00
11936;BME280;6027;48.576;9.180;2022-07-30T03:28:27;96989.88;;;16.64;100.00
11936;BME280;6027;48.576;9.180;2022-07-30T03:30:54;96992.13;;;16.67;100.00
11936;BME280;6027;48.576;9.180;2022-07-30T03:33:20;97002.78;;;16.73;100.00
11936;BME280;6027;48.576;9.180;2022-07-30T03:35:47;96994.97;;;16.72;100.00
11936;BME280;6027;48.576;9.180;2022-07-30T03:38:14;96998.06;;;16.69;100.00
11936;BME280;6027;48.576;9.180;2022-07-30T03:40:41;96993.97;;;16.66;100.00
11936;BME280;6027;48.576;9.180;2022-07-30T03:43:08;97001.38;;;16.57;100.00
11936;BME280;6027;48.576;9.180;2022-07-30T03:45:36;97002.22;;;16.58;100.00
11936;BME280;6027;48.576;9.180;2022-07-30T03:48:03;97007.19;;;16.54;100.00
11936;BME280;6027;48.576;9.180;2022-07-30T03:50:29;97011.66;;;16.61;100.00
11936;BME280;6027;48.576;9.180;2022-07-30T03:52:55;97012.25;;;16.63;100.00
11936;BME280;6027;48.576;9.180;2022-07-30T03:55:21;97012.28;;;16.56;100.00
11936;BME280;6027;48.576;9.180;2022-07-30T03:57:47;97010.09;;;16.53;100.00
11936;BME280;6027;48.576;9.180;2022-07-30T04:00:16;97009.69;;;16.49;100.00
11936;BME280;6027;48.576;9.180;2022-07-30T04:02:44;97015.34;;;16.59;100.00
11936;BME280;6027;48.576;9.180;2022-07-30T04:05:12;97020.56;;;16.54;100.00
11936;BME280;6027;48.576;9.180;2022-07-30T04:07:39;97029.34;;;16.62;100.00
11936;BME280;6027;48.576;9.180;2022-07-30T04:10:06;97029.97;;;16.57;100.00
11936;BME280;6027;48.576;9.180;2022-07-30T04:12:32;97041.28;;;16.59;100.00
11936;BME280;6027;48.576;9.180;2022-07-30T04:14:57;97046.41;;;16.61;100.00
11936;BME280;6027;48.576;9.180;2022-07-30T04:20:05;97042.91;;;16.60;100.00
11936;BME280;6027;48.576;9.180;2022-07-30T04:22:34;97057.91;;;16.68;100.00
11936;BME280;6027;48.576;9.180;2022-07-30T04:25:03;97055.47;;;16.66;100.00
11936;BME280;6027;48.576;9.180;2022-07-30T04:27:31;97058.53;;;16.70;100.00
11936;BME280;6027;48.576;9.180;2022-07-30T04:29:58;97061.63;;;16.60;100.00
11936;BME280;6027;48.576;9.180;2022-07-30T04:32:24;97059.38;;;16.57;100.00
11936;BME280;6027;48.576;9.180;2022-07-30T04:34:52;97063.69;;;16.58;100.00
11936;BME280;6027;48.576;9.180;2022-07-30T04:37:20;97076.84;;;16.59;100.00
11936;BME280;6027;48.576;9.180;2022-07-30T04:39:46;97068.50;;;16.49;100.00
11936;BME280;6027;48.576;9.180;2022-07-30T04:42:19;97076.75;;;16.41;100.00
11936;BME280;6027;48.576;9.180;2022-07-30T04:44:44;97072.50;;;16.34;100.00
11936;BME280;6027;48.576;9.180;2022-07-30T04:47:09;97082.09;;;16.41;100.00
11936;BME280;6027;48.576;9.180;2022-07-30T04:49:35;97083.72;;;16.42;100.00
11936;BME280;6027;48.576;9.180;2022-07-30T04:52:02;97085.41;;;16.37;100.00
11936;BME280;6027;48.576;9.180;2022-07-30T04:54:43;97090.38;;;16.33;100.00
11936;BME280;6027;48.576;9.180;2022-07-30T04:57:11;97087.09;;;16.24;100.00
11936;BME280;6027;48.576;9.180;2022-07-30T04:59:38;97092.06;;;16.21;100.00
11936;BME280;6027;48.576;9.180;2022-07-30T05:02:05;97094.09;;;16.26;100.00
11936;BME280;6027;48.576;9.180;2022-07-30T05:04:33;97095.53;;;16.28;100.00
11936;BME280;6027;48.576;9.180;2022-07-30T05:07:00;97096.31;;;16.35;100.00
11936;BME280;6027;48.576;9.180;2022-07-30T05:09:27;97102.09;;;16.32;100.00
11936;BME280;6027;48.576;9.180;2022-07-30T05:11:54;97090.84;;;16.17;100.00
11936;BME280;6027;48.576;9.180;2022-07-30T05:14:21;97095.16;;;16.18;100.00
11936;BME280;6027;48.576;9.180;2022-07-30T05:16:47;97103.97;;;16.18;100.00
11936;BME280;6027;48.576;9.180;2022-07-30T05:19:13;97100.69;;;16.16;100.00
11936;BME280;6027;48.576;9.180;2022-07-30T05:21:38;97104.81;;;16.19;100.00
11936;BME280;6027;48.576;9.180;2022-07-30T05:24:04;97102.31;;;16.31;100.00
11936;BME280;6027;48.576;9.180;2022-07-30T05:26:30;97106.44;;;16.27;100.00
11936;BME280;6027;48.576;9.180;2022-07-30T05:28:55;97095.09;;;16.31;100.00
11936;BME280;6027;48.576;9.180;2022-07-30T05:31:21;97108.88;;;16.28;100.00
11936;BME280;6027;48.576;9.180;2022-07-30T05:33:46;97105.38;;;16.28;100.00
11936;BME280;6027;48.576;9.180;2022-07-30T05:36:12;97107.22;;;16.34;100.00
11936;BME280;6027;48.576;9.180;2022-07-30T05:38:37;97104.34;;;16.29;100.00
11936;BME280;6027;48.576;9.180;2022-07-30T05:41:03;97105.19;;;16.29;100.00
11936;BME280;6027;48.576;9.180;2022-07-30T05:43:28;97106.81;;;16.30;100.00
11936;BME280;6027;48.576;9.180;2022-07-30T05:45:53;97110.09;;;16.32;100.00
11936;BME280;6027;48.576;9.180;2022-07-30T05:48:19;97104.75;;;16.32;100.00
11936;BME280;6027;48.576;9.180;2022-07-30T05:50:44;97108.03;;;16.34;100.00
11936;BME280;6027;48.576;9.180;2022-07-30T05:53:10;97112.72;;;16.45;100.00
11936;BME280;6027;48.576;9.180;2022-07-30T05:55:35;97116.38;;;16.51;100.00
11936;BME280;6027;48.576;9.180;2022-07-30T05:58:01;97114.06;;;16.61;100.00
11936;BME280;6027;48.576;9.180;2022-07-30T06:00:26;97114.97;;;16.48;100.00
11936;BME280;6027;48.576;9.180;2022-07-30T06:02:52;97110.56;;;16.61;100.00
11936;BME280;6027;48.576;9.180;2022-07-30T06:05:17;97115.31;;;16.58;100.00
11936;BME280;6027;48.576;9.180;2022-07-30T06:07:43;97124.34;;;16.64;100.00
11936;BME280;6027;48.576;9.180;2022-07-30T06:10:09;97120.41;;;16.73;100.00
11936;BME280;6027;48.576;9.180;2022-07-30T06:12:34;97124.06;;;16.79;100.00
11936;BME280;6027;48.576;9.180;2022-07-30T06:15:00;97121.13;;;16.87;100.00
11936;BME280;6027;48.576;9.180;2022-07-30T06:17:25;97120.72;;;16.90;100.00
11936;BME280;6027;48.576;9.180;2022-07-30T06:19:50;97122.69;;;17.01;100.00
11936;BME280;6027;48.576;9.180;2022-07-30T06:22:17;97123.28;;;17.03;100.00
11936;BME280;6027;48.576;9.180;2022-07-30T06:24:43;97124.94;;;17.04;100.00
11936;BME280;6027;48.576;9.180;2022-07-30T06:27:09;97114.53;;;17.14;100.00
11936;BME280;6027;48.576;9.180;2022-07-30T06:29:34;97118.59;;;17.23;100.00
11936;BME280;6027;48.576;9.180;2022-07-30T06:32:00;97130.91;;;17.31;100.00
11936;BME280;6027;48.576;9.180;2022-07-30T06:34:26;97125.28;;;17.39;100.00
11936;BME280;6027;48.576;9.180;2022-07-30T06:36:51;97125.66;;;17.43;100.00
11936;BME280;6027;48.576;9.180;2022-07-30T06:39:18;97124.31;;;17.52;100.00
11936;BME280;6027;48.576;9.180;2022-07-30T06:41:44;97124.66;;;17.62;100.00
11936;BME280;6027;48.576;9.180;2022-07-30T06:44:09;97135.13;;;17.70;100.00
11936;BME280;6027;48.576;9.180;2022-07-30T06:46:35;97124.41;;;17.70;100.00
11936;BME280;6027;48.576;9.180;2022-07-30T06:49:02;97124.72;;;17.80;100.00
11936;BME280;6027;48.576;9.180;2022-07-30T06:51:27;97125.09;;;17.84;100.00
11936;BME280;6027;48.576;9.180;2022-07-30T06:53:53;97128.75;;;17.89;100.00
11936;BME280;6027;48.576;9.180;2022-07-30T06:56:18;97129.94;;;17.93;100.00
11936;BME280;6027;48.576;9.180;2022-07-30T06:58:44;97127.56;;;18.04;100.00
11936;BME280;6027;48.576;9.180;2022-07-30T07:01:10;97132.81;;;18.10;100.00
11936;BME280;6027;48.576;9.180;2022-07-30T07:03:35;97130.75;;;18.12;100.00
11936;BME280;6027;48.576;9.180;2022-07-30T07:06:01;97127.34;;;18.23;100.00
11936;BME280;6027;48.576;9.180;2022-07-30T07:08:26;97132.91;;;18.22;100.00
11936;BME280;6027;48.576;9.180;2022-07-30T07:10:52;97128.16;;;18.24;100.00
11936;BME280;6027;48.576;9.180;2022-07-30T07:13:17;97131.72;;;18.36;100.00
11936;BME280;6027;48.576;9.180;2022-07-30T07:15:43;97125.22;;;18.44;100.00
11936;BME280;6027;48.576;9.180;2022-07-30T07:18:09;97131.09;;;18.52;100.00
11936;BME280;6027;48.576;9.180;2022-07-30T07:20:36;97133.91;;;18.57;100.00
11936;BME280;6027;48.576;9.180;2022-07-30T07:23:02;97135.84;;;18.69;100.00
11936;BME280;6027;48.576;9.180;2022-07-30T07:25:27;97134.88;;;18.81;100.00
11936;BME280;6027;48.576;9.180;2022-07-30T07:27:53;97137.34;;;18.94;100.00
11936;BME280;6027;48.576;9.180;2022-07-30T07:30:18;97127.22;;;19.08;100.00
11936;BME280;6027;48.576;9.180;2022-07-30T07:32:44;97130.66;;;19.15;100.00
11936;BME280;6027;48.576;9.180;2022-07-30T07:35:09;97130.31;;;19.23;100.00
11936;BME280;6027;48.576;9.180;2022-07-30T07:37:36;97131.25;;;19.29;100.00
11936;BME280;6027;48.576;9.180;2022-07-30T07:40:02;97132.19;;;19.35;100.00
11936;BME280;6027;48.576;9.180;2022-07-30T07:42:28;97132.09;;;19.41;100.00
11936;BME280;6027;48.576;9.180;2022-07-30T07:44:53;97136.28;;;19.49;100.00
11936;BME280;6027;48.576;9.180;2022-07-30T07:47:19;97132.25;;;19.58;100.00
11936;BME280;6027;48.576;9.180;2022-07-30T07:49:44;97141.81;;;19.65;100.00
11936;BME280;6027;48.576;9.180;2022-07-30T07:52:10;97138.44;;;19.70;100.00
11936;BME280;6027;48.576;9.180;2022-07-30T07:54:35;97133.66;;;19.72;100.00
11936;BME280;6027;48.576;9.180;2022-07-30T07:57:01;97130.63;;;19.80;100.00
11936;BME280;6027;48.576;9.180;2022-07-30T07:59:28;97139.38;;;19.87;100.00
11936;BME280;6027;48.576;9.180;2022-07-30T08:01:53;97140.66;;;19.85;100.00
11936;BME280;6027;48.576;9.180;2022-07-30T08:04:19;97130.25;;;19.88;100.00
11936;BME280;6027;48.576;9.180;2022-07-30T08:06:44;97138.41;;;20.05;100.00
11936;BME280;6027;48.576;9.180;2022-07-30T08:09:09;97137.13;;;20.08;100.00
11936;BME280;6027;48.576;9.180;2022-07-30T08:11:35;97135.81;;;20.22;100.00
11936;BME280;6027;48.576;9.180;2022-07-30T08:14:01;97138.66;;;20.39;100.00
11936;BME280;6027;48.576;9.180;2022-07-30T08:16:27;97141.88;;;20.52;100.00
11936;BME280;6027;48.576;9.180;2022-07-30T08:18:53;97140.72;;;20.48;100.00
11936;BME280;6027;48.576;9.180;2022-07-30T08:21:18;97136.63;;;20.46;100.00
11936;BME280;6027;48.576;9.180;2022-07-30T08:23:44;97136.50;;;20.52;100.00
11936;BME280;6027;48.576;9.180;2022-07-30T08:26:09;97136.03;;;20.55;100.00
11936;BME280;6027;48.576;9.180;2022-07-30T08:28:35;97137.84;;;20.66;100.00
11936;BME280;6027;48.576;9.180;2022-07-30T08:31:01;97127.91;;;20.67;100.00
11936;BME280;6027;48.576;9.180;2022-07-30T08:33:27;97124.59;;;20.77;100.00
11936;BME280;6027;48.576;9.180;2022-07-30T08:35:52;97125.72;;;20.81;100.00
11936;BME280;6027;48.576;9.180;2022-07-30T08:38:18;97136.34;;;20.87;100.00
11936;BME280;6027;48.576;9.180;2022-07-30T08:40:43;97132.47;;;20.95;98.80
11936;BME280;6027;48.576;9.180;2022-07-30T08:43:09;97135.16;;;20.95;97.00
11936;BME280;6027;48.576;9.180;2022-07-30T08:45:35;97135.41;;;20.93;100.00
11936;BME280;6027;48.576;9.180;2022-07-30T08:48:06;97140.53;;;20.95;100.00
11936;BME280;6027;48.576;9.180;2022-07-30T08:50:33;97145.81;;;20.90;95.98
11936;BME280;6027;48.576;9.180;2022-07-30T08:53:00;97142.19;;;20.96;100.00
11936;BME280;6027;48.576;9.180;2022-07-30T08:55:26;97136.28;;;20.99;100.00
11936;BME280;6027;48.576;9.180;2022-07-30T08:57:51;97138.69;;;21.12;94.76
11936;BME280;6027;48.576;9.180;2022-07-30T09:00:17;97142.44;;;21.11;88.41
11936;BME280;6027;48.576;9.180;2022-07-30T09:02:43;97144.16;;;21.17;88.76
11936;BME280;6027;48.576;9.180;2022-07-30T09:05:10;97144.72;;;21.19;90.30
11936;BME280;6027;48.576;9.180;2022-07-30T09:07:36;97143.16;;;21.35;94.12
11936;BME280;6027;48.576;9.180;2022-07-30T09:10:03;97139.56;;;21.46;98.03
11936;BME280;6027;48.576;9.180;2022-07-30T09:17:54;97138.91;;;21.73;85.20
11936;BME280;6027;48.576;9.180;2022-07-30T09:20:22;97147.38;;;21.81;78.90
11936;BME280;6027;48.576;9.180;2022-07-30T09:22:50;97147.22;;;21.88;84.71
11936;BME280;6027;48.576;9.180;2022-07-30T09:25:32;97150.25;;;21.91;74.57
11936;BME280;6027;48.576;9.180;2022-07-30T09:27:57;97151.69;;;21.99;73.76
11936;BME280;6027;48.576;9.180;2022-07-30T09:30:23;97144.59;;;22.10;68.50
11936;BME280;6027;48.576;9.180;2022-07-30T09:32:53;97141.47;;;22.18;72.55
11936;BME280;6027;48.576;9.180;2022-07-30T09:35:21;97145.78;;;22.19;69.41
11936;BME280;6027;48.576;9.180;2022-07-30T09:37:57;97148.59;;;22.07;71.23
11936;BME280;6027;48.576;9.180;2022-07-30T09:40:23;97148.28;;;22.03;73.75
11936;BME280;6027;48.576;9.180;2022-07-30T09:43:10;97146.50;;;21.92;72.96
11936;BME280;6027;48.576;9.180;2022-07-30T09:45:36;97141.81;;;22.04;71.57
11936;BME280;6027;48.576;9.180;2022-07-30T09:48:25;97134.25;;;22.23;65.93
11936;BME280;6027;48.576;9.180;2022-07-30T09:50:53;97142.59;;;22.22;68.84
11936;BME280;6027;48.576;9.180;2022-07-30T09:53:19;97147.50;;;22.25;68.45
11936;BME280;6027;48.576;9.180;2022-07-30T09:55:48;97141.78;;;22.21;64.53
11936;BME280;6027;48.576;9.180;2022-07-30T09:58:13;97135.72;;;22.31;64.02
11936;BME280;6027;48.576;9.180;2022-07-30T10:00:40;97133.72;;;22.43;61.76
11936;BME280;6027;48.576;9.180;2022-07-30T10:03:21;97135.66;;;22.48;69.47
11936;BME280;6027;48.576;9.180;2022-07-30T10:05:52;97144.19;;;22.61;56.43
11936;BME280;6027;48.576;9.180;2022-07-30T10:08:19;97128.72;;;22.57;54.94
11936;BME280;6027;48.576;9.180;2022-07-30T10:10:46;97129.06;;;22.60;63.58
11936;BME280;6027;48.576;9.180;2022-07-30T10:13:13;97134.22;;;22.84;56.35
11936;BME280;6027;48.576;9.180;2022-07-30T10:15:39;97125.84;;;22.85;60.19
11936;BME280;6027;48.576;9.180;2022-07-30T10:18:05;97127.28;;;22.93;57.35
11936;BME280;6027;48.576;9.180;2022-07-30T10:20:31;97119.78;;;23.00;62.88
11936;BME280;6027;48.576;9.180;2022-07-30T10:22:57;97126.88;;;23.06;55.67
11936;BME280;6027;48.576;9.180;2022-07-30T10:25:24;97126.56;;;23.02;56.95
11936;BME280;6027;48.576;9.180;2022-07-30T10:27:51;97125.38;;;22.93;56.00
11936;BME280;6027;48.576;9.180;2022-07-30T10:30:17;97128.34;;;22.92;54.44
11936;BME280;6027;48.576;9.180;2022-07-30T10:32:43;97124.53;;;22.88;55.78
11936;BME280;6027;48.576;9.180;2022-07-30T10:35:09;97122.91;;;22.87;58.70
11936;BME280;6027;48.576;9.180;2022-07-30T10:37:39;97123.06;;;23.02;54.60
11936;BME280;6027;48.576;9.180;2022-07-30T10:43:20;97118.00;;;23.11;55.91
11936;BME280;6027;48.576;9.180;2022-07-30T10:46:15;97124.13;;;23.28;56.74
11936;BME280;6027;48.576;9.180;2022-07-30T10:48:46;97114.41;;;23.32;55.18
11936;BME280;6027;48.576;9.180;2022-07-30T10:51:11;97110.38;;;23.34;58.59
11936;BME280;6027;48.576;9.180;2022-07-30T10:53:42;97116.38;;;23.41;54.27
11936;BME280;6027;48.576;9.180;2022-07-30T10:56:22;97110.88;;;23.58;51.77
11936;BME280;6027;48.576;9.180;2022-07-30T10:59:09;97108.72;;;23.60;52.03
11936;BME280;6027;48.576;9.180;2022-07-30T11:04:26;97111.13;;;23.57;53.26
11936;BME280;6027;48.576;9.180;2022-07-30T11:09:42;97125.16;;;23.54;49.40
11936;BME280;6027;48.576;9.180;2022-07-30T11:12:09;97104.66;;;23.58;51.50
11936;BME280;6027;48.576;9.180;2022-07-30T11:17:13;97104.06;;;23.93;49.67
11936;BME280;6027;48.576;9.180;2022-07-30T11:22:31;97100.28;;;23.94;49.59
11936;BME280;6027;48.576;9.180;2022-07-30T11:30:29;97097.44;;;24.16;45.40
11936;BME280;6027;48.576;9.180;2022-07-30T11:32:52;97095.81;;;24.20;47.91
11936;BME280;6027;48.576;9.180;2022-07-30T11:38:06;97092.66;;;24.33;50.77
11936;BME280;6027;48.576;9.180;2022-07-30T11:43:28;97085.63;;;24.32;46.83
11936;BME280;6027;48.576;9.180;2022-07-30T11:46:18;97082.94;;;24.37;47.30
11936;BME280;6027;48.576;9.180;2022-07-30T11:49:00;97080.28;;;24.52;47.21
11936;BME280;6027;48.576;9.180;2022-07-30T11:51:41;97085.19;;;24.65;47.57
11936;BME280;6027;48.576;9.180;2022-07-30T11:54:08;97089.28;;;24.73;46.87
11936;BME280;6027;48.576;9.180;2022-07-30T11:56:50;97091.16;;;24.72;43.64
11936;BME280;6027;48.576;9.180;2022-07-30T11:59:15;97089.00;;;24.69;44.72
11936;BME280;6027;48.576;9.180;2022-07-30T12:01:41;97079.22;;;24.63;46.26
11936;BME280;6027;48.576;9.180;2022-07-30T12:04:08;97080.59;;;24.66;46.13
11936;BME280;6027;48.576;9.180;2022-07-30T12:06:42;97081.13;;;24.68;44.38
11936;BME280;6027;48.576;9.180;2022-07-30T12:09:08;97079.50;;;24.62;45.53
11936;BME280;6027;48.576;9.180;2022-07-30T12:11:34;97067.31;;;24.64;43.99
11936;BME280;6027;48.576;9.180;2022-07-30T12:14:01;97079.53;;;24.72;45.93
11936;BME280;6027;48.576;9.180;2022-07-30T12:16:28;97065.72;;;24.73;45.56
11936;BME280;6027;48.576;9.180;2022-07-30T12:19:00;97073.84;;;24.73;46.84
11936;BME280;6027;48.576;9.180;2022-07-30T12:21:25;97050.28;;;24.69;47.37
11936;BME280;6027;48.576;9.180;2022-07-30T12:23:57;97077.13;;;24.91;45.54
11936;BME280;6027;48.576;9.180;2022-07-30T12:26:28;97076.09;;;25.12;45.91
11936;BME280;6027;48.576;9.180;2022-07-30T12:28:56;97075.03;;;25.18;45.91
11936;BME280;6027;48.576;9.180;2022-07-30T12:31:22;97070.41;;;25.19;43.60
11936;BME280;6027;48.576;9.180;2022-07-30T12:33:48;97066.34;;;25.16;42.05
11936;BME280;6027;48.576;9.180;2022-07-30T12:36:30;97079.06;;;25.26;42.82
11936;BME280;6027;48.576;9.180;2022-07-30T12:38:56;97069.59;;;25.33;40.30
11936;BME280;6027;48.576;9.180;2022-07-30T12:41:34;97063.38;;;25.33;41.20
11936;BME280;6027;48.576;9.180;2022-07-30T12:44:04;97075.56;;;25.15;42.85
11936;BME280;6027;48.576;9.180;2022-07-30T12:46:37;97066.34;;;25.11;43.01
11936;BME280;6027;48.576;9.180;2022-07-30T12:49:04;97066.63;;;25.15;44.05
11936;BME280;6027;48.576;9.180;2022-07-30T12:51:32;97060.94;;;25.31;42.58
11936;BME280;6027;48.576;9.180;2022-07-30T12:54:00;97061.19;;;25.55;40.82
11936;BME280;6027;48.576;9.180;2022-07-30T12:56:27;97064.97;;;25.74;41.64
11936;BME280;6027;48.576;9.180;2022-07-30T12:58:55;97057.94;;;25.73;40.30
11936;BME280;6027;48.576;9.180;2022-07-30T13:01:41;97050.03;;;25.87;42.64
11936;BME280;6027;48.576;9.180;2022-07-30T13:04:08;97050.78;;;26.03;41.16
11936;BME280;6027;48.576;9.180;2022-07-30T13:06:34;97056.78;;;25.95;42.23
11936;BME280;6027;48.576;9.180;2022-07-30T13:09:00;97058.97;;;25.88;40.67
11936;BME280;6027;48.576;9.180;2022-07-30T13:11:46;97055.22;;;25.63;41.92
11936;BME280;6027;48.576;9.180;2022-07-30T13:14:12;97055.50;;;25.57;38.84
11936;BME280;6027;48.576;9.180;2022-07-30T13:16:39;97050.34;;;25.55;41.63
11936;BME280;6027;48.576;9.180;2022-07-30T13:19:07;97047.34;;;25.57;41.05
11936;BME280;6027;48.576;9.180;2022-07-30T13:21:34;97046.00;;;25.59;40.30
11936;BME280;6027;48.576;9.180;2022-07-30T13:24:00;97044.91;;;25.45;38.88
11936;BME280;6027;48.576;9.180;2022-07-30T13:26:26;97039.25;;;25.36;39.24
11936;BME280;6027;48.576;9.180;2022-07-30T13:28:54;97038.69;;;25.29;40.49
11936;BME280;6027;48.576;9.180;2022-07-30T13:31:20;97048.44;;;25.10;39.60
11936;BME280;6027;48.576;9.180;2022-07-30T13:33:46;97041.97;;;25.01;39.85
11936;BME280;6027;48.576;9.180;2022-07-30T13:36:11;97038.97;;;24.97;43.46
11936;BME280;6027;48.576;9.180;2022-07-30T13:38:37;97035.44;;;25.07;42.79